Time;durP1;ratioP1;P1;durP2;ratioP2;P2;SDS_P1;SDS_P2;PMS_P1;PMS_P2;Temp;Humidity;BMP_temperature;BMP_pressure;BME280_temperature;BME280_humidity;BME280_pressure;Samples;Min_cycle;Max_cycle;Signal;HPM_P1;HPM_P2
2021/08/20 00:01:03;;;;;;;7.82;2.85;;;;;;;16.95;82.73;100425.44;5131012;27;20023;-60
2021/08/20 00:03:28;;;;;;;7.25;3.20;;;;;;;16.93;82.43;100418.53;5130948;27;20054;-60
2021/08/20 00:05:54;;;;;;;9.68;3.25;;;;;;;16.94;82.65;100425.63;5130951;27;20027;-60
2021/08/20 00:08:19;;;;;;;5.10;2.83;;;;;;;16.84;82.76;100414.13;5131233;27;20038;-60
2021/08/20 00:10:45;;;;;;;8.40;3.40;;;;;;;16.86;82.69;100423.75;5133017;27;20042;-60
2021/08/20 00:13:10;;;;;;;6.50;3.20;;;;;;;16.80;82.83;100423.63;5134627;27;20023;-60
2021/08/20 00:15:36;;;;;;;5.45;2.67;;;;;;;16.83;83.79;100431.41;5134608;27;20047;-60
2021/08/20 00:18:01;;;;;;;7.88;3.28;;;;;;;16.81;84.07;100425.31;5134516;27;20019;-60
2021/08/20 00:20:27;;;;;;;7.18;3.38;;;;;;;16.80;84.33;100423.63;5134458;27;20043;-60
2021/08/20 00:22:52;;;;;;;8.02;3.35;;;;;;;16.79;83.68;100433.59;5134449;27;20542;-61
2021/08/20 00:25:18;;;;;;;6.85;3.60;;;;;;;16.79;84.00;100427.31;5134361;27;20501;-60
2021/08/20 00:27:43;;;;;;;7.25;3.22;;;;;;;16.78;83.97;100431.91;5134396;27;20143;-61
2021/08/20 00:30:09;;;;;;;7.10;3.10;;;;;;;16.76;84.04;100433.94;5134254;27;20023;-61
2021/08/20 00:32:36;;;;;;;8.02;2.88;;;;;;;16.70;83.74;100418.38;5134292;27;20507;-61
2021/08/20 00:35:02;;;;;;;7.68;3.38;;;;;;;16.72;83.75;100432.59;5134070;27;20031;-60
2021/08/20 00:37:27;;;;;;;6.05;3.30;;;;;;;16.66;84.28;100422.44;5134193;27;20026;-61
2021/08/20 00:39:53;;;;;;;11.13;3.90;;;;;;;16.70;84.16;100429.22;5133923;27;20035;-60
2021/08/20 00:42:18;;;;;;;8.15;2.75;;;;;;;16.66;83.67;100427.00;5134455;27;20100;-60
2021/08/20 00:44:44;;;;;;;5.25;3.03;;;;;;;16.67;84.14;100434.13;5133804;27;20039;-60
2021/08/20 00:47:09;;;;;;;5.20;3.13;;;;;;;16.67;83.86;100434.97;5133902;27;20039;-60
2021/08/20 00:49:35;;;;;;;5.40;2.90;;;;;;;16.60;83.76;100430.41;5133796;27;20463;-60
2021/08/20 00:52:01;;;;;;;6.03;3.05;;;;;;;16.61;83.85;100432.94;5133817;27;20409;-60
2021/08/20 00:54:27;;;;;;;7.88;3.45;;;;;;;16.60;84.31;100431.25;5133656;27;20154;-60
2021/08/20 00:56:53;;;;;;;4.93;2.92;;;;;;;16.57;84.22;100428.88;5133817;27;20499;-60
2021/08/20 00:59:22;;;;;;;6.60;2.83;;;;;;;16.53;83.79;100424.81;5133923;27;20027;-60
2021/08/20 01:01:47;;;;;;;7.80;2.83;;;;;;;16.53;83.91;100438.38;5134009;27;20023;-60
2021/08/20 01:04:13;;;;;;;7.63;3.47;;;;;;;16.51;83.63;100434.97;5133517;27;20026;-60
2021/08/20 01:06:40;;;;;;;7.70;3.63;;;;;;;16.48;83.76;100429.06;5132251;27;20023;-60
2021/08/20 01:09:06;;;;;;;8.80;3.10;;;;;;;16.43;83.93;100431.41;5133387;27;20474;-60
2021/08/20 01:11:32;;;;;;;5.47;3.03;;;;;;;16.41;84.00;100418.03;5133516;27;20103;-60
2021/08/20 01:13:57;;;;;;;4.00;2.80;;;;;;;16.37;84.38;100422.09;5133458;27;20022;-60
2021/08/20 01:16:23;;;;;;;4.97;3.15;;;;;;;16.32;84.24;100418.19;5133257;27;20617;-60
2021/08/20 01:18:48;;;;;;;4.93;2.80;;;;;;;16.32;84.42;100420.91;5133506;27;20039;-61
2021/08/20 01:21:20;;;;;;;5.18;3.00;;;;;;;16.31;84.44;100435.47;5132790;27;20095;-60
2021/08/20 01:23:52;;;;;;;9.23;3.00;;;;;;;16.27;84.27;100426.81;5133172;27;20031;-60
2021/08/20 01:26:18;;;;;;;8.00;2.90;;;;;;;16.22;84.49;100423.75;5133299;27;20030;-60
2021/08/20 01:28:43;;;;;;;6.75;3.15;;;;;;;16.21;84.51;100424.78;5133185;27;20386;-59
2021/08/20 01:31:12;;;;;;;4.68;2.83;;;;;;;16.20;84.21;100430.38;5133030;27;20102;-60
2021/08/20 01:33:39;;;;;;;4.28;2.60;;;;;;;16.13;84.40;100421.22;5133274;27;20027;-60
2021/08/20 01:36:05;;;;;;;5.93;3.30;;;;;;;16.13;84.52;100423.94;5132691;27;20098;-60
2021/08/20 01:38:34;;;;;;;7.32;3.20;;;;;;;16.10;84.50;100424.25;5132933;27;20051;-60
2021/08/20 01:40:59;;;;;;;6.45;3.35;;;;;;;16.07;84.43;100421.88;5132809;27;20023;-60
2021/08/20 01:43:24;;;;;;;5.57;3.25;;;;;;;16.03;84.26;100418.69;5132647;27;20047;-60
2021/08/20 01:45:51;;;;;;;6.25;3.22;;;;;;;15.95;84.29;100407.84;5133050;27;20030;-60
2021/08/20 01:48:17;;;;;;;8.43;3.97;;;;;;;15.96;84.49;100417.63;5132584;27;20121;-60
2021/08/20 01:50:43;;;;;;;5.13;3.33;;;;;;;15.99;84.90;100419.19;5131266;27;20094;-60
2021/08/20 01:53:12;;;;;;;6.88;4.32;;;;;;;15.95;84.73;100415.97;5131249;27;20035;-61
2021/08/20 01:55:38;;;;;;;6.28;4.13;;;;;;;15.94;85.24;100415.09;5132545;27;20043;-61
2021/08/20 01:58:04;;;;;;;6.40;3.83;;;;;;;15.93;85.25;100411.75;5132554;27;20139;-60
2021/08/20 02:00:30;;;;;;;5.10;3.40;;;;;;;15.90;84.98;100415.63;5132597;27;20051;-61
2021/08/20 02:02:56;;;;;;;7.05;3.97;;;;;;;15.91;85.00;100420.00;5132935;27;20022;-60
2021/08/20 02:05:21;;;;;;;4.68;3.42;;;;;;;15.87;85.63;100418.66;5132374;27;20103;-60
2021/08/20 02:07:47;;;;;;;8.15;3.97;;;;;;;15.90;85.72;100423.75;5132339;27;20015;-60
2021/08/20 02:10:12;;;;;;;8.00;3.75;;;;;;;15.87;85.73;100426.78;5132272;27;20042;-60
2021/08/20 02:12:38;;;;;;;6.07;3.40;;;;;;;15.87;85.42;100422.19;5130922;27;20019;-60
2021/08/20 02:15:05;;;;;;;6.82;3.67;;;;;;;15.86;85.15;100416.94;5132321;27;20482;-60
2021/08/20 02:17:30;;;;;;;4.78;3.00;;;;;;;15.84;85.30;100419.81;5130836;27;20470;-60
2021/08/20 02:19:56;;;;;;;8.20;3.38;;;;;;;15.83;84.80;100415.44;5131922;27;20080;-60
2021/08/20 02:22:21;;;;;;;5.28;3.30;;;;;;;15.83;84.86;100418.13;5132344;27;20030;-60
2021/08/20 02:24:47;;;;;;;4.57;2.97;;;;;;;15.83;85.12;100417.28;5132040;27;20019;-60
2021/08/20 02:27:12;;;;;;;6.32;3.47;;;;;;;15.73;85.00;100394.94;5130725;27;20058;-60
2021/08/20 02:29:38;;;;;;;7.22;3.58;;;;;;;15.79;85.11;100410.50;5131817;27;20106;-60
2021/08/20 02:32:04;;;;;;;4.65;3.10;;;;;;;15.78;84.77;100417.81;5132039;27;20050;-60
2021/08/20 02:34:29;;;;;;;9.48;3.58;;;;;;;15.72;84.62;100404.06;5131280;27;20072;-60
2021/08/20 02:36:55;;;;;;;6.03;3.28;;;;;;;15.77;84.88;100413.38;5132167;27;20049;-60
2021/08/20 02:39:20;;;;;;;4.57;3.15;;;;;;;15.75;84.89;100415.44;5130803;27;20126;-61
2021/08/20 02:41:45;;;;;;;4.10;2.95;;;;;;;15.73;84.44;100417.44;5131824;27;20021;-60
2021/08/20 02:44:11;;;;;;;6.95;3.30;;;;;;;15.67;84.63;100411.81;5131581;27;20084;-60
2021/08/20 02:46:38;;;;;;;10.07;3.67;;;;;;;15.67;84.77;100412.69;5131617;27;20027;-60
2021/08/20 02:49:04;;;;;;;5.72;3.38;;;;;;;15.66;85.03;100418.25;5130443;27;20068;-59
2021/08/20 02:51:29;;;;;;;5.68;3.40;;;;;;;15.65;85.50;100420.13;5131782;27;20474;-60
2021/08/20 02:53:55;;;;;;;7.72;4.13;;;;;;;15.62;85.29;100430.41;5131900;27;20381;-60
2021/08/20 02:56:20;;;;;;;7.10;3.72;;;;;;;15.59;85.68;100419.94;5131543;27;20114;-60
2021/08/20 02:58:46;;;;;;;5.47;3.38;;;;;;;15.56;85.94;100415.69;5131626;27;20023;-60
2021/08/20 03:01:13;;;;;;;5.10;3.22;;;;;;;15.56;86.09;100422.97;5131557;27;20023;-60
2021/08/20 03:03:38;;;;;;;6.30;3.53;;;;;;;15.56;86.20;100420.25;5131182;27;20022;-60
2021/08/20 03:06:03;;;;;;;6.43;3.50;;;;;;;15.56;86.41;100429.22;5131305;27;20016;-61
2021/08/20 03:08:29;;;;;;;11.60;3.75;;;;;;;15.56;86.49;100425.66;5131577;27;20067;-61
2021/08/20 03:10:54;;;;;;;6.15;3.55;;;;;;;15.58;86.26;100424.47;5131746;27;20482;-60
2021/08/20 03:13:20;;;;;;;7.50;4.00;;;;;;;15.53;86.41;100416.03;5130048;28;20024;-60
2021/08/20 03:15:45;;;;;;;7.35;3.80;;;;;;;15.58;86.45;100423.66;5131494;28;20023;-60
2021/08/20 03:18:11;;;;;;;8.10;3.17;;;;;;;15.58;86.54;100419.06;5130945;27;20050;-59
2021/08/20 03:20:36;;;;;;;5.28;3.33;;;;;;;15.56;86.79;100421.09;5131403;27;20031;-59
2021/08/20 03:23:02;;;;;;;9.60;4.15;;;;;;;15.58;87.34;100424.47;5131580;27;20113;-59
2021/08/20 03:25:28;;;;;;;10.90;4.38;;;;;;;15.58;87.96;100424.47;5131248;27;20027;-60
2021/08/20 03:27:53;;;;;;;11.95;4.43;;;;;;;15.61;88.19;100426.84;5131727;27;20420;-60
2021/08/20 03:30:18;;;;;;;8.38;4.28;;;;;;;15.65;88.54;100432.78;5129901;27;20019;-60
2021/08/20 03:32:44;;;;;;;6.15;4.22;;;;;;;15.68;88.69;100432.47;5131125;27;20023;-61
2021/08/20 03:35:09;;;;;;;8.70;3.38;;;;;;;15.70;88.72;100427.72;5131113;27;20011;-60
2021/08/20 03:37:40;;;;;;;7.95;3.78;;;;;;;15.75;88.62;100436.19;5130718;27;20019;-60
2021/08/20 03:40:06;;;;;;;9.68;3.70;;;;;;;15.78;88.47;100433.16;5131108;27;20027;-60
2021/08/20 03:42:32;;;;;;;7.28;4.07;;;;;;;15.83;88.65;100436.22;5131349;28;20069;-60
2021/08/20 03:44:57;;;;;;;6.55;4.03;;;;;;;15.86;88.64;100434.03;5133824;27;20071;-60
2021/08/20 03:47:23;;;;;;;8.45;3.63;;;;;;;15.84;88.16;100433.34;5135142;27;20080;-61
2021/08/20 03:49:49;;;;;;;4.22;3.67;;;;;;;15.90;88.07;100435.38;5135172;27;20072;-61
2021/08/20 03:52:14;;;;;;;10.52;4.82;;;;;;;15.93;87.88;100444.19;5135048;27;20467;-61
2021/08/20 03:54:40;;;;;;;6.53;3.65;;;;;;;15.97;88.13;100446.41;5133710;27;20015;-61
2021/08/20 03:57:06;;;;;;;8.93;3.53;;;;;;;15.94;87.80;100434.03;5133625;27;20045;-60
2021/08/20 03:59:31;;;;;;;5.10;3.45;;;;;;;15.97;88.25;100441.00;5134868;27;20067;-61
2021/08/20 04:01:57;;;;;;;7.25;3.80;;;;;;;16.03;87.66;100445.75;5134949;27;20055;-61
2021/08/20 04:04:23;;;;;;;11.20;4.03;;;;;;;15.99;86.47;100436.25;5134549;27;20188;-61
2021/08/20 04:06:48;;;;;;;8.50;4.50;;;;;;;16.00;86.11;100446.09;5134739;27;20363;-61
2021/08/20 04:09:13;;;;;;;7.75;4.35;;;;;;;15.98;86.25;100448.09;5134964;27;20023;-60
2021/08/20 04:11:39;;;;;;;10.27;4.00;;;;;;;16.00;86.52;100446.09;5134645;27;20363;-61
2021/08/20 04:14:04;;;;;;;5.15;3.83;;;;;;;16.04;86.64;100447.44;5133271;27;20027;-60
2021/08/20 04:16:31;;;;;;;8.55;4.20;;;;;;;16.02;86.51;100443.22;5134303;27;20026;-61
2021/08/20 04:18:56;;;;;;;6.68;3.97;;;;;;;16.11;86.53;100448.47;5135004;27;20031;-61
2021/08/20 04:21:22;;;;;;;16.45;4.43;;;;;;;16.09;86.66;100436.94;5134284;27;20043;-60
2021/08/20 04:23:47;;;;;;;7.65;4.63;;;;;;;16.18;87.64;100448.66;5133345;27;20050;-59
2021/08/20 04:26:13;;;;;;;13.68;4.53;;;;;;;16.22;88.69;100450.81;5134330;27;20094;-59
2021/08/20 04:28:38;;;;;;;7.15;4.25;;;;;;;16.30;88.47;100450.84;5134756;27;20015;-61
2021/08/20 04:31:04;;;;;;;10.40;4.53;;;;;;;16.37;87.97;100448.28;5134132;27;20031;-61
2021/08/20 04:33:30;;;;;;;6.82;4.43;;;;;;;16.43;87.53;100443.09;5134577;27;20481;-62
2021/08/20 04:35:55;;;;;;;7.88;5.05;;;;;;;16.47;87.22;100447.16;5134515;27;20027;-62
2021/08/20 04:38:21;;;;;;;10.48;4.57;;;;;;;16.59;86.71;100447.66;5134103;27;20446;-62
2021/08/20 04:40:46;;;;;;;9.52;4.75;;;;;;;16.70;86.65;100447.34;5134192;27;20031;-60
2021/08/20 04:43:12;;;;;;;12.35;5.35;;;;;;;16.81;86.29;100446.97;5133953;27;20561;-62
2021/08/20 04:45:37;;;;;;;16.67;5.82;;;;;;;16.93;87.90;100451.03;5133830;27;20031;-62
2021/08/20 04:48:03;;;;;;;11.10;5.10;;;;;;;17.04;87.50;100459.66;5133894;27;20031;-63
2021/08/20 04:50:29;;;;;;;10.85;4.35;;;;;;;17.16;85.87;100455.53;5134338;27;20505;-62
2021/08/20 04:52:56;;;;;;;8.95;4.65;;;;;;;17.26;85.46;100449.94;5133871;27;20023;-63
2021/08/20 04:55:21;;;;;;;8.93;4.70;;;;;;;17.39;84.81;100452.94;5133236;27;20056;-63
2021/08/20 04:57:47;;;;;;;8.45;4.38;;;;;;;17.51;83.86;100449.69;5134222;27;20046;-62
2021/08/20 05:00:12;;;;;;;6.57;4.68;;;;;;;17.60;81.65;100443.22;5133728;27;20427;-62
2021/08/20 05:02:38;;;;;;;6.93;4.55;;;;;;;17.77;79.18;100444.81;5133819;27;20026;-63
2021/08/20 05:05:07;;;;;;;7.75;4.30;;;;;;;17.92;78.20;100453.03;5133748;27;20026;-63
2021/08/20 05:07:36;;;;;;;6.57;4.55;;;;;;;18.05;78.03;100448.72;5133824;27;20443;-61
2021/08/20 05:10:09;;;;;;;13.43;5.18;;;;;;;18.23;77.90;100453.03;5133825;27;20027;-61
2021/08/20 05:12:36;;;;;;;16.60;5.63;;;;;;;18.40;78.52;100454.63;5133514;27;20021;-61
2021/08/20 05:15:02;;;;;;;10.50;4.88;;;;;;;18.58;79.05;100452.44;5133746;27;20075;-61
2021/08/20 05:17:27;;;;;;;9.55;4.65;;;;;;;18.78;77.45;100451.75;5133681;27;20015;-62
2021/08/20 05:19:52;;;;;;;7.25;4.88;;;;;;;18.98;76.26;100447.50;5133370;27;20462;-62
2021/08/20 05:22:18;;;;;;;6.65;4.20;;;;;;;19.19;74.20;100453.03;5133960;27;20019;-61
2021/08/20 05:24:44;;;;;;;5.63;3.70;;;;;;;19.41;73.74;100446.69;5133450;27;20015;-61
2021/08/20 05:27:09;;;;;;;7.78;4.43;;;;;;;19.62;72.61;100446.78;5133492;27;20030;-62
2021/08/20 05:29:35;;;;;;;8.52;4.78;;;;;;;19.84;70.75;100448.53;5132106;27;20106;-61
2021/08/20 05:32:00;;;;;;;8.15;4.05;;;;;;;20.08;68.65;100450.91;5133702;27;20022;-61
2021/08/20 05:34:25;;;;;;;5.30;3.67;;;;;;;20.29;67.35;100454.72;5133126;27;20023;-61
2021/08/20 05:36:51;;;;;;;9.05;4.32;;;;;;;20.51;66.20;100453.69;5133180;27;20191;-62
2021/08/20 05:39:16;;;;;;;6.65;4.38;;;;;;;20.71;65.08;100449.25;5132985;27;20118;-62
2021/08/20 05:41:42;;;;;;;9.10;4.50;;;;;;;20.95;64.36;100462.47;5131554;27;20104;-62
2021/08/20 05:44:07;;;;;;;9.57;4.00;;;;;;;21.13;63.66;100450.06;5132532;27;20051;-62
2021/08/20 05:46:33;;;;;;;6.03;4.20;;;;;;;21.35;62.46;100442.63;5131709;27;20019;-62
2021/08/20 05:49:03;;;;;;;9.48;3.80;;;;;;;21.58;61.59;100454.09;5132768;27;20030;-63
2021/08/20 05:51:28;;;;;;;9.55;3.65;;;;;;;21.78;61.05;100460.53;5132618;27;20531;-62
2021/08/20 05:53:54;;;;;;;5.10;3.95;;;;;;;21.99;60.59;100458.50;5131375;27;20103;-59
2021/08/20 05:56:19;;;;;;;5.57;3.75;;;;;;;22.22;60.13;100460.91;5132645;27;20015;-59
2021/08/20 05:58:47;;;;;;;12.68;4.00;;;;;;;22.45;59.20;100453.19;5132382;27;20367;-61
2021/08/20 06:01:13;;;;;;;9.27;4.38;;;;;;;22.62;57.64;100450.91;5132456;27;20027;-62
2021/08/20 06:03:38;;;;;;;9.88;4.60;;;;;;;22.88;57.22;100459.13;5132507;27;20072;-63
2021/08/20 06:06:04;;;;;;;11.85;8.43;;;;;;;23.11;56.01;100457.66;5132773;27;20026;-62
2021/08/20 06:08:29;;;;;;;23.58;13.00;;;;;;;23.34;55.03;100462.72;5132701;27;20026;-61
2021/08/20 06:10:54;;;;;;;25.27;15.27;;;;;;;23.56;54.79;100456.75;5132776;27;20042;-61
2021/08/20 06:13:20;;;;;;;22.75;12.93;;;;;;;23.79;52.83;100457.09;5132292;27;20052;-62
2021/08/20 06:15:45;;;;;;;23.85;14.50;;;;;;;23.98;52.04;100453.47;5132569;27;20068;-61
2021/08/20 06:18:11;;;;;;;28.75;14.95;;;;;;;24.16;51.69;100458.22;5132492;27;20027;-61
2021/08/20 06:20:36;;;;;;;21.25;13.27;;;;;;;24.36;51.03;100459.81;5132433;27;20027;-61
2021/08/20 06:23:02;;;;;;;23.98;13.30;;;;;;;24.50;50.16;100457.78;5132680;27;20035;-61
2021/08/20 06:25:27;;;;;;;22.02;13.40;;;;;;;24.73;49.90;100465.50;5132183;27;20453;-61
2021/08/20 06:27:53;;;;;;;26.58;11.80;;;;;;;24.91;49.34;100463.63;5132033;27;20022;-60
2021/08/20 06:30:18;;;;;;;17.85;10.25;;;;;;;25.13;47.35;100458.59;5132240;27;20111;-61
2021/08/20 06:32:44;;;;;;;14.88;9.93;;;;;;;25.31;47.25;100458.69;5132305;27;20045;-61
2021/08/20 06:35:09;;;;;;;14.90;9.13;;;;;;;25.55;46.80;100455.03;5124254;27;20023;-61
2021/08/20 06:37:35;;;;;;;13.40;7.07;;;;;;;25.78;45.99;100445.03;5132479;27;20038;-61
2021/08/20 06:40:02;;;;;;;12.93;7.50;;;;;;;26.02;45.36;100449.59;5132578;27;20039;-61
2021/08/20 06:42:27;;;;;;;13.63;7.35;;;;;;;26.19;45.10;100452.56;5132001;27;20022;-61
2021/08/20 06:44:53;;;;;;;9.32;4.72;;;;;;;26.34;43.43;100448.31;5131687;27;20096;-62
2021/08/20 06:47:18;;;;;;;6.30;4.25;;;;;;;26.41;42.86;100445.47;5132014;27;20019;-61
2021/08/20 06:49:45;;;;;;;6.57;4.05;;;;;;;26.44;42.22;100450.53;5131693;27;20066;-61
2021/08/20 06:52:11;;;;;;;7.88;3.47;;;;;;;26.46;42.59;100448.34;5132029;27;20019;-61
2021/08/20 06:54:37;;;;;;;7.75;4.07;;;;;;;26.50;42.97;100447.66;5132141;27;20042;-62
2021/08/20 06:57:02;;;;;;;5.75;4.20;;;;;;;26.52;42.80;100448.28;5131666;27;20019;-62
2021/08/20 06:59:28;;;;;;;5.20;3.85;;;;;;;26.59;42.40;100448.16;5130240;27;20035;-62
2021/08/20 07:01:54;;;;;;;7.28;4.72;;;;;;;26.60;41.83;100441.59;5130350;28;20381;-62
2021/08/20 07:04:19;;;;;;;6.30;4.45;;;;;;;26.70;41.41;100444.63;5131717;27;20052;-62
2021/08/20 07:06:45;;;;;;;6.30;4.20;;;;;;;26.76;41.95;100449.19;5131979;27;20015;-62
2021/08/20 07:09:10;;;;;;;8.10;4.88;;;;;;;26.81;42.34;100443.81;5131602;27;20098;-62
2021/08/20 07:11:36;;;;;;;6.88;5.45;;;;;;;26.88;42.27;100450.03;5131651;27;20046;-62
2021/08/20 07:14:01;;;;;;;7.55;5.53;;;;;;;27.02;42.17;100447.91;5131760;27;20023;-63
2021/08/20 07:16:27;;;;;;;10.10;5.00;;;;;;;27.05;41.59;100447.44;5131450;27;20019;-62
2021/08/20 07:18:53;;;;;;;9.30;6.45;;;;;;;27.10;41.05;100442.88;5132205;27;20023;-61
2021/08/20 07:21:18;;;;;;;8.63;5.30;;;;;;;27.20;40.83;100447.78;5136034;27;20115;-62
2021/08/20 07:23:44;;;;;;;8.43;4.25;;;;;;;27.24;40.60;100452.63;5135753;27;20034;-63
2021/08/20 07:26:10;;;;;;;8.02;5.47;;;;;;;27.26;40.47;100444.97;5135486;27;20019;-63
2021/08/20 07:28:35;;;;;;;5.80;3.88;;;;;;;27.29;39.53;100441.72;5136062;27;20026;-62
2021/08/20 07:31:01;;;;;;;4.03;2.95;;;;;;;27.34;39.80;100443.78;5135713;27;20019;-62
2021/08/20 07:33:27;;;;;;;5.43;2.85;;;;;;;27.37;40.16;100448.81;5135342;27;20124;-62
2021/08/20 07:35:53;;;;;;;5.88;3.33;;;;;;;27.32;40.07;100432.13;5135541;27;20023;-62
2021/08/20 07:38:18;;;;;;;6.10;2.97;;;;;;;27.45;39.89;100443.75;5134026;27;20056;-63
2021/08/20 07:40:44;;;;;;;4.38;2.88;;;;;;;27.54;39.35;100441.47;5135113;27;20105;-60
2021/08/20 07:43:09;;;;;;;9.32;2.70;;;;;;;27.65;38.40;100435.09;5135488;27;20502;-61
2021/08/20 07:45:35;;;;;;;4.15;2.22;;;;;;;27.77;38.61;100446.94;5135116;27;20076;-61
2021/08/20 07:48:00;;;;;;;4.72;2.83;;;;;;;27.87;38.72;100441.66;5135201;27;20027;-61
2021/08/20 07:50:26;;;;;;;3.97;2.75;;;;;;;27.97;38.55;100456.50;5135036;27;20029;-62
2021/08/20 07:52:51;;;;;;;3.33;2.45;;;;;;;27.95;37.65;100435.78;5135072;27;20473;-61
2021/08/20 07:55:17;;;;;;;2.78;2.35;;;;;;;28.03;38.10;100447.25;5134770;27;20026;-61
2021/08/20 07:57:51;;;;;;;3.00;2.17;;;;;;;28.14;37.24;100453.81;5135031;27;20027;-63
2021/08/20 08:00:25;;;;;;;4.57;2.55;;;;;;;28.18;37.31;100452.25;5134916;27;20490;-62
2021/08/20 08:02:51;;;;;;;4.72;2.80;;;;;;;28.20;37.33;100456.44;5134930;27;20023;-63
2021/08/20 08:05:17;;;;;;;2.75;2.35;;;;;;;28.32;37.29;100456.38;5134750;27;20067;-63
2021/08/20 08:07:43;;;;;;;3.40;2.30;;;;;;;28.34;36.72;100452.28;5133743;27;20457;-63
2021/08/20 08:10:09;;;;;;;4.32;2.80;;;;;;;28.44;36.98;100455.25;5135096;27;20118;-63
2021/08/20 08:12:35;;;;;;;4.30;2.20;;;;;;;28.58;37.27;100460.47;5134745;27;20023;-61
2021/08/20 08:15:00;;;;;;;2.83;2.10;;;;;;;28.73;37.22;100461.59;5134814;27;20119;-62
2021/08/20 08:17:26;;;;;;;2.33;1.80;;;;;;;28.90;36.69;100464.38;5134599;27;20240;-62
2021/08/20 08:19:52;;;;;;;2.25;1.60;;;;;;;29.09;36.42;100463.06;5134527;27;20038;-61
2021/08/20 08:22:17;;;;;;;4.35;2.03;;;;;;;29.26;35.94;100461.97;5133240;27;20470;-62
2021/08/20 08:24:43;;;;;;;4.03;2.20;;;;;;;29.41;34.85;100450.31;5134659;27;20027;-62
2021/08/20 08:27:08;;;;;;;3.58;2.33;;;;;;;29.61;34.66;100457.00;5134739;27;20068;-61
2021/08/20 08:29:34;;;;;;;2.33;2.10;;;;;;;29.72;34.34;100446.91;5133795;27;20034;-62
2021/08/20 08:31:59;;;;;;;4.13;2.10;;;;;;;29.84;34.55;100442.09;5133430;27;20386;-62
2021/08/20 08:34:25;;;;;;;6.28;2.50;;;;;;;29.95;34.36;100450.25;5134517;27;20094;-62
2021/08/20 08:36:50;;;;;;;2.58;2.20;;;;;;;30.03;33.99;100443.44;5134563;27;20016;-62
2021/08/20 08:39:16;;;;;;;3.40;2.30;;;;;;;30.09;33.88;100437.72;5134253;27;20019;-62
2021/08/20 08:41:41;;;;;;;2.88;1.70;;;;;;;30.24;33.87;100443.44;5134668;27;20172;-62
2021/08/20 08:44:07;;;;;;;2.88;2.30;;;;;;;30.35;33.46;100442.47;5134198;27;20367;-62
2021/08/20 08:46:37;;;;;;;4.88;1.95;;;;;;;30.44;33.24;100442.84;5134227;27;20378;-62
2021/08/20 08:49:07;;;;;;;2.28;2.00;;;;;;;30.49;33.17;100437.34;5134848;27;20027;-63
2021/08/20 08:51:33;;;;;;;2.80;2.25;;;;;;;30.63;33.08;100441.38;5134034;27;20087;-63
2021/08/20 08:53:59;;;;;;;2.70;2.20;;;;;;;30.73;33.21;100438.72;5134369;27;20474;-63
2021/08/20 08:56:24;;;;;;;2.58;2.33;;;;;;;30.82;33.19;100445.44;5133914;27;20486;-62
2021/08/20 08:58:50;;;;;;;3.00;2.17;;;;;;;30.93;33.11;100438.06;5134303;27;20017;-64
2021/08/20 09:01:33;;;;;;;4.40;2.53;;;;;;;30.99;32.69;100437.84;5133888;27;20721;-63
2021/08/20 09:04:12;;;;;;;3.08;2.40;;;;;;;31.06;32.41;100444.00;5133860;27;20098;-62
2021/08/20 09:06:46;;;;;;;3.45;1.90;;;;;;;31.10;32.06;100442.38;5133781;27;20023;-62
2021/08/20 09:09:17;;;;;;;5.47;2.40;;;;;;;31.11;32.34;100432.94;5134099;27;20015;-62
2021/08/20 09:11:43;;;;;;;3.22;2.38;;;;;;;31.13;32.30;100433.53;5132797;27;20509;-62
2021/08/20 09:14:10;;;;;;;4.88;2.45;;;;;;;31.18;32.03;100432.72;5133741;27;20019;-62
2021/08/20 09:16:41;;;;;;;5.03;2.40;;;;;;;31.18;31.73;100438.28;5133187;27;20493;-64
2021/08/20 09:19:14;;;;;;;3.42;2.10;;;;;;;31.20;32.22;100436.03;5133709;27;20023;-62
2021/08/20 09:21:41;;;;;;;3.83;2.78;;;;;;;31.13;31.78;100427.13;5133712;27;20019;-63
2021/08/20 09:24:31;;;;;;;4.47;2.45;;;;;;;31.06;31.87;100435.69;5133657;27;20027;-63
2021/08/20 09:27:14;;;;;;;2.47;2.15;;;;;;;31.06;32.28;100420.97;5133324;27;20467;-63
2021/08/20 09:29:58;;;;;;;3.35;2.35;;;;;;;31.03;32.23;100422.34;5133538;27;20023;-63
2021/08/20 09:32:24;;;;;;;4.05;2.83;;;;;;;31.05;32.12;100427.63;5132016;27;20051;-63
2021/08/20 09:34:57;;;;;;;3.50;2.85;;;;;;;31.04;32.22;100426.78;5131695;27;20107;-62
2021/08/20 09:37:23;;;;;;;3.25;2.67;;;;;;;30.95;32.50;100406.22;5131684;27;20031;-62
2021/08/20 09:39:49;;;;;;;5.18;2.15;;;;;;;31.01;32.12;100415.41;5133238;27;20108;-63
2021/08/20 09:42:18;;;;;;;3.25;2.35;;;;;;;30.96;32.25;100423.69;5133224;27;20034;-62
2021/08/20 09:44:44;;;;;;;5.32;2.65;;;;;;;30.98;31.88;100427.84;5133003;27;20383;-61
2021/08/20 09:47:10;;;;;;;4.15;2.50;;;;;;;30.97;32.27;100428.97;5132967;27;20023;-63
2021/08/20 09:49:56;;;;;;;3.42;2.60;;;;;;;30.96;31.69;100423.69;5133008;27;20027;-62
2021/08/20 09:52:27;;;;;;;4.07;2.60;;;;;;;30.84;31.57;100410.00;5132873;27;20080;-61
2021/08/20 09:54:53;;;;;;;4.20;2.20;;;;;;;30.79;31.94;100423.84;5132798;27;20026;-63
2021/08/20 09:57:31;;;;;;;3.55;2.20;;;;;;;30.66;32.16;100415.91;5132673;27;20048;-63
2021/08/20 09:59:57;;;;;;;4.80;2.40;;;;;;;30.52;32.72;100414.66;5132821;27;20462;-62
2021/08/20 10:02:28;;;;;;;2.58;2.13;;;;;;;30.39;32.87;100420.63;5132669;27;20106;-62
2021/08/20 10:04:58;;;;;;;2.92;2.45;;;;;;;30.24;32.96;100412.19;5132573;27;20019;-63
2021/08/20 10:07:27;;;;;;;3.97;2.53;;;;;;;30.05;32.74;100408.06;5132589;27;20149;-63
2021/08/20 10:09:54;;;;;;;2.30;2.03;;;;;;;29.92;33.03;100405.69;5132678;27;20447;-63
2021/08/20 10:12:25;;;;;;;3.85;2.53;;;;;;;29.81;33.49;100414.94;5132428;27;20110;-63
2021/08/20 10:14:52;;;;;;;3.63;2.53;;;;;;;29.70;33.85;100407.63;5132371;27;20019;-63
2021/08/20 10:17:18;;;;;;;4.88;2.20;;;;;;;29.60;34.67;100405.50;5132717;27;20023;-63
2021/08/20 10:19:44;;;;;;;5.65;2.13;;;;;;;29.54;34.88;100405.72;5132527;27;20045;-64
2021/08/20 10:22:10;;;;;;;4.30;2.38;;;;;;;29.39;34.47;100388.91;5132574;27;20045;-64
2021/08/20 10:24:37;;;;;;;3.28;2.25;;;;;;;29.43;34.37;100401.97;5132203;27;20023;-64
2021/08/20 10:27:05;;;;;;;5.80;2.10;;;;;;;29.36;34.45;100392.19;5132486;27;20031;-63
2021/08/20 10:29:33;;;;;;;4.35;2.15;;;;;;;29.40;34.42;100393.38;5132149;27;20030;-65
2021/08/20 10:32:06;;;;;;;4.07;2.20;;;;;;;29.44;34.41;100394.53;5132492;27;20026;-65
2021/08/20 10:34:33;;;;;;;4.22;2.03;;;;;;;29.52;34.07;100385.78;5131892;27;20079;-65
2021/08/20 10:37:12;;;;;;;4.32;2.33;;;;;;;29.64;34.49;100392.91;5131077;27;20030;-65
2021/08/20 10:39:44;;;;;;;4.18;2.13;;;;;;;29.72;34.17;100389.66;5132078;27;20494;-65
2021/08/20 10:42:10;;;;;;;3.25;2.00;;;;;;;29.79;33.77;100382.00;5130527;27;20482;-64
2021/08/20 10:44:38;;;;;;;5.90;1.98;;;;;;;29.85;33.72;100391.19;5131786;27;20561;-64
2021/08/20 10:47:04;;;;;;;3.42;2.50;;;;;;;29.89;33.42;100387.66;5130639;27;20026;-64
2021/08/20 10:49:38;;;;;;;4.68;2.10;;;;;;;29.92;33.60;100389.91;5131925;27;20023;-63
2021/08/20 10:52:04;;;;;;;2.53;2.10;;;;;;;29.94;33.41;100381.34;5131868;27;20027;-63
2021/08/20 10:54:36;;;;;;;3.33;2.20;;;;;;;29.95;33.50;100383.06;5130831;27;20083;-63
2021/08/20 10:57:06;;;;;;;3.60;2.20;;;;;;;29.94;33.34;100379.44;5131929;27;20025;-63
2021/08/20 10:59:43;;;;;;;4.00;2.30;;;;;;;29.91;33.24;100379.09;5131696;27;20027;-64
2021/08/20 11:02:18;;;;;;;3.45;2.60;;;;;;;29.85;33.25;100369.06;5130576;28;20055;-63
2021/08/20 11:05:09;;;;;;;4.18;2.47;;;;;;;29.77;33.60;100372.31;5131998;27;20072;-63
2021/08/20 11:07:41;;;;;;;2.78;2.10;;;;;;;29.70;33.63;100366.13;5131805;27;20123;-63
2021/08/20 11:10:10;;;;;;;5.97;2.70;;;;;;;29.64;33.93;100373.53;5132248;27;20385;-63
2021/08/20 11:12:48;;;;;;;3.10;2.47;;;;;;;29.63;34.15;100366.31;5131598;27;20027;-63
2021/08/20 11:15:34;;;;;;;4.50;2.55;;;;;;;29.68;34.19;100379.38;5131884;27;20039;-62
2021/08/20 11:18:04;;;;;;;3.13;2.13;;;;;;;29.72;33.83;100375.84;5131618;27;20094;-62
2021/08/20 11:20:44;;;;;;;5.80;2.80;;;;;;;29.70;33.71;100371.66;5131493;27;20069;-63
2021/08/20 11:23:12;;;;;;;3.25;2.53;;;;;;;29.73;34.24;100371.97;5131633;27;20470;-64